EDT,Max TemperatureF,Mean TemperatureF,Min TemperatureF,Max Dew PointF,MeanDew PointF,Min DewpointF,Max Humidity, Mean Humidity, Min Humidity, Max Sea Level PressureIn, Mean Sea Level PressureIn, Min Sea Level PressureIn, Max VisibilityMiles, Mean VisibilityMiles, Min VisibilityMiles, Max Wind SpeedMPH, Mean Wind SpeedMPH, Max Gust SpeedMPH,PrecipitationIn, CloudCover, Events, WindDirDegrees
2013-7-1,79,72,65,70,67,65,97,87,62,30.07,30.01,29.94,10,7,0,6,1,,0.31,6,Fog-Rain,106
2013-7-2,73,67,61,70,64,59,96,91,82,30.22,30.14,30.05,10,9,4,6,2,,0.50,8,Rain,124
2013-7-3,87,74,60,71,65,59,96,80,50,30.21,30.15,30.09,10,10,5,9,1,17,0.00,5,Rain,252
2013-7-4,90,78,65,74,69,64,97,77,45,30.20,30.14,30.06,10,7,0,10,2,23,0.01,4,Fog-Thunderstorm,267
2013-7-5,91,80,68,71,68,64,95,69,41,30.15,30.09,30.02,10,10,5,10,4,20,0.00,1,Thunderstorm,285
2013-7-6,85,76,65,70,67,61,96,73,46,30.07,30.03,29.98,10,9,2,10,4,17,0.04,2,Rain,285
2013-7-7,84,73,62,71,65,61,96,78,47,30.03,29.98,29.92,10,8,2,7,1,,0.01,1,Rain-Thunderstorm,295
2013-7-8,80,74,67,71,68,66,96,89,67,30.08,29.99,29.93,10,7,1,8,1,16,1.17,7,Rain-Thunderstorm,87
2013-7-9,75,70,66,67,66,64,96,86,73,30.12,30.08,30.06,10,9,3,7,2,,0.00,8,,98
2013-7-10,69,67,65,68,66,64,96,92,87,30.07,29.92,29.79,10,6,1,7,2,,0.84,8,Rain-Thunderstorm,98
2013-7-11,80,71,62,70,64,58,97,79,47,29.99,29.84,29.76,10,7,0,10,2,17,0.01,5,Fog-Rain,293
2013-7-12,81,68,54,65,58,53,97,73,41,30.23,30.12,30.00,10,9,0,7,1,,0.00,0,Fog,103
2013-7-13,80,68,56,68,61,55,97,77,48,30.32,30.29,30.23,10,9,1,6,1,,0.00,5,,149
2013-7-14,86,76,65,70,67,64,97,78,51,30.31,30.27,30.21,10,8,0,9,2,,0.00,6,Fog,275
2013-7-15,90,76,63,73,65,60,97,73,39,30.23,30.18,30.11,10,7,0,10,2,,0.00,3,Fog,290
2013-7-16,88,76,63,69,64,61,95,68,40,30.19,30.16,30.14,10,10,5,13,4,18,0.00,1,,295
2013-7-17,92,76,61,72,65,60,97,71,38,30.21,30.10,29.97,10,8,1,9,1,30,0.46,1,Rain-Thunderstorm,269
2013-7-18,88,78,68,72,69,66,96,81,50,30.03,29.99,29.95,10,8,2,10,3,,0.16,2,Rain-Thunderstorm,294
2013-7-19,92,80,69,74,69,66,97,75,43,29.96,29.80,29.68,10,6,0,14,2,28,0.04,4,Fog-Rain-Thunderstorm,251
2013-7-20,84,74,64,69,66,62,96,77,51,29.81,29.70,29.65,10,9,2,21,4,29,0.11,1,Rain-Thunderstorm,280
2013-7-21,79,68,57,64,59,54,97,76,43,30.02,29.93,29.81,10,9,1,7,1,,0.00,2,,280
2013-7-22,72,64,57,66,61,56,97,86,73,30.04,29.99,29.92,10,9,2,6,1,,0.00,7,,103
2013-7-23,74,68,62,67,63,61,96,90,74,29.92,29.69,29.56,10,6,0,7,1,,1.41,6,Fog-Rain,260
2013-7-24,74,68,63,70,64,62,97,95,70,29.67,29.62,29.60,10,4,0,6,0,,0.00,8,Fog-Thunderstorm,273
2013-7-25,,,,,,,,,,,,,,,,,,,0.00,,,-1
2013-7-26,,,,,,,,,,,,,,,,,,,0.00,,,-1
2013-7-27,,,,,,,,,,,,,,,,,,,0.00,,,-1
2013-7-28,,,,,,,,,,,,,,,,,,,0.00,,,-1
2013-7-29,,,,,,,,,,,,,,,,,,,0.00,,,-1
2013-7-30,,,,,,,,,,,,,,,,,,,0.00,,,-1
2013-7-31,,,,,,,,,,,,,,,,,,,0.00,,,-1